Norup, Denmark
Current Conditions -  °F | °C
As of 11:20 PM on Sunday 25 Jan 2015 (Local Time) from EKBI Reporting Station
Broken Clouds Broken Clouds  
Wind Chill: 33°   Ceiling: 2600
Heat Index: 37°   Visibility: 4mi
Dew Point: 36°   Wind: 6mph
Humidity: 93%   Direction: 180°S
Pressure: 30.15"   Gusts: NA
Location:  55.72°N, 9.32°E
Report Text: EKBI 252220Z 18005KT 7000 SCT002 BKN026 03/02 Q1021
Loading
Personal Weather Stations






























Interactive Weather Map New forecast layout! Learn more

10-Day Weather Forecast

Advertisements
Track Severe Weather on mobile